Terminal Aerodrome Forecast
Issued by NWS

Home | Current Version | Previous Version | Text Only | Print | Product List | Glossary On
Versions: 1 2 3 4 5 6 7 8 9 10 11 12 13 14 15 16 17 18 19
000
FTAK31 PAFA 231738
TAFAOM
TAF
PAOM 231738Z 2318/2418 14012KT P6SM -SHSN BKN015 OVC025
      TEMPO 2318/2321 1 1/2SM -SN BR OVC015
     FM232100 17015KT 1 1/2SM -SN BR OVC015
     FM240300 20012KT 3SM -SHSN BKN015 OVC035
     FM240600 23010KT P6SM VCSH SCT015 BKN045=

USA.gov is the U.S. government's official web portal to all federal, state and local government web resources and services.